Terminal Aerodrome Forecast
Issued by NWS

Home | Current Version | Previous Version | Graphics & Text | Print | Product List | Glossary On
Versions: 1 2 3 4 5 6 7 8 9 10 11 12 13 14 15 16 17
000
FTUS43 KLSX 220800 AAA
TAFSUS
TAF AMD
KSUS 220859Z 2209/2306 VRB03KT 5SM BR SKC
      TEMPO 2209/2212 3SM BR
     FM221500 20006KT P6SM FEW050 SCT250
     FM230500 32010G25KT 4SM TSRA BR BKN050CB OVC150=

USA.gov is the U.S. government's official web portal to all federal, state and local government web resources and services.